General Aviation Weather

Text Reports

Enter one or more of the following location identifiers separated by a space:

Zip Code, Four-Character ICAO or Three-Character IATA airport codes.

METAR - Aviation Routine Weather Report
KRZL - Rensselaer, Indiana
Updated at 1:55 PM GMT on September 01, 2014 (8:55 AM CDT):
METAR KRZL 011355Z AUTO 18010G16KT 7SM OVC010 23/22 A2983 RMK AO2
TAF - Terminal Area Forecast
KRZL - Rensselaer, Indiana
Updated at 1:55 PM GMT on September 01, 2014 (8:55 AM CDT):
No TAF is currently available for this location.
Decoded:
No decoded TAF is available.
PIREP - Pilot Weather Report
KRZL - Rensselaer, Indiana
Updated at 1:55 PM GMT on September 01, 2014 (8:55 AM CDT):
No PIREP is currently available for this location.
AIRMET - Airmens Meteorological Information
KRZL - Rensselaer, Indiana
Updated at 1:55 PM GMT on September 01, 2014 (8:55 AM CDT):
No AIRMET is currently available for this location.
SIGMET - Significant Meteorological Information
KRZL - Rensselaer, Indiana
Updated at 1:55 PM GMT on September 01, 2014 (8:55 AM CDT):
No SIGMET is currently available for this location.
NOTAM - Notice to Airmen
KRZL - Rensselaer, Indiana
Updated at 1:55 PM GMT on September 01, 2014 (8:55 AM CDT):
No NOTAM is currently available for this location.
Forecast Area
KRZL - Rensselaer, Indiana
Updated at 1:55 PM GMT on September 01, 2014 (8:55 AM CDT):
No NOTAM is currently available for this location.
Aviation Weather Maps